KWWD/WWD METAR and TAF weather

Enter ICAO airport designator
Station Type Date Time Source
KWWD METAR 2019/12/08 23:56 UTC NOAA

KWWD 082356Z AUTO 14004KT 10SM CLR 05/02 A3040 RMK AO2 SLP297 T00500017 10083 20050 56010


Station Type Date Time Source
KWWD Decoded METAR 2019/12/08 23:56 UTC NOAA

Wildwood, Cape May County Airport, NJ, United States (KWWD) 39-01N 074-55W
Dec 08, 2019 - 06:56 PM EST / 2019.12.08 2356 UTC
Wind: from the SE (140 degrees) at 5 MPH (4 KT):0
Visibility: 10 mile(s):0
Sky conditions: clear
Temperature: 41.0 F (5.0 C)
Dew Point: 35.1 F (1.7 C)
Relative Humidity: 79%
Pressure (altimeter): 30.4 in. Hg (1029 hPa)
Pressure tendency: 0.03 inches (1.0 hPa) lower than three hours ago
ob: KWWD 082356Z AUTO 14004KT 10SM CLR 05/02 A3040 RMK AO2 SLP297 T00500017 10083 20050 56010
cycle: 0

Station Type Date Time Source
KWWD TAF UTC NOAA

Error!

Example: see airport list